sensor_id;sensor_type;location;lat;lon;timestamp;P1;durP1;ratioP1;P2;durP2;ratioP2
6017;SDS011;3037;51.068;13.780;2023-10-13T00:01:18;19.40;;;9.40;;
6017;SDS011;3037;51.068;13.780;2023-10-13T00:03:44;16.00;;;8.70;;
6017;SDS011;3037;51.068;13.780;2023-10-13T00:06:09;11.87;;;6.50;;
6017;SDS011;3037;51.068;13.780;2023-10-13T00:08:35;20.80;;;6.87;;
6017;SDS011;3037;51.068;13.780;2023-10-13T00:11:05;10.77;;;7.10;;
6017;SDS011;3037;51.068;13.780;2023-10-13T00:13:31;19.80;;;7.23;;
6017;SDS011;3037;51.068;13.780;2023-10-13T00:16:15;16.57;;;7.70;;
6017;SDS011;3037;51.068;13.780;2023-10-13T00:18:48;18.47;;;7.93;;
6017;SDS011;3037;51.068;13.780;2023-10-13T00:21:16;11.80;;;7.00;;
6017;SDS011;3037;51.068;13.780;2023-10-13T00:23:45;10.63;;;6.90;;
6017;SDS011;3037;51.068;13.780;2023-10-13T00:26:27;8.10;;;5.57;;
6017;SDS011;3037;51.068;13.780;2023-10-13T00:29:02;18.43;;;6.93;;
6017;SDS011;3037;51.068;13.780;2023-10-13T00:31:29;14.50;;;6.97;;
6017;SDS011;3037;51.068;13.780;2023-10-13T00:33:58;15.17;;;7.53;;
6017;SDS011;3037;51.068;13.780;2023-10-13T00:36:34;8.97;;;6.50;;
6017;SDS011;3037;51.068;13.780;2023-10-13T00:39:00;11.30;;;6.70;;
6017;SDS011;3037;51.068;13.780;2023-10-13T00:41:25;9.53;;;6.63;;
6017;SDS011;3037;51.068;13.780;2023-10-13T00:44:11;17.17;;;6.90;;
6017;SDS011;3037;51.068;13.780;2023-10-13T00:46:38;8.73;;;7.27;;
6017;SDS011;3037;51.068;13.780;2023-10-13T00:49:04;8.90;;;7.47;;
6017;SDS011;3037;51.068;13.780;2023-10-13T00:51:31;10.37;;;6.47;;
6017;SDS011;3037;51.068;13.780;2023-10-13T00:54:03;14.40;;;7.40;;
6017;SDS011;3037;51.068;13.780;2023-10-13T00:56:36;7.30;;;5.77;;
6017;SDS011;3037;51.068;13.780;2023-10-13T00:59:15;14.23;;;6.77;;
6017;SDS011;3037;51.068;13.780;2023-10-13T01:01:41;18.73;;;8.10;;
6017;SDS011;3037;51.068;13.780;2023-10-13T01:04:08;16.90;;;7.20;;
6017;SDS011;3037;51.068;13.780;2023-10-13T01:06:37;14.90;;;6.10;;
6017;SDS011;3037;51.068;13.780;2023-10-13T01:09:04;11.83;;;7.27;;
6017;SDS011;3037;51.068;13.780;2023-10-13T01:11:37;12.13;;;6.90;;
6017;SDS011;3037;51.068;13.780;2023-10-13T01:14:04;9.33;;;6.17;;
6017;SDS011;3037;51.068;13.780;2023-10-13T01:16:31;12.13;;;6.30;;
6017;SDS011;3037;51.068;13.780;2023-10-13T01:18:57;12.30;;;7.93;;
6017;SDS011;3037;51.068;13.780;2023-10-13T01:21:30;7.50;;;5.80;;
6017;SDS011;3037;51.068;13.780;2023-10-13T01:23:57;15.40;;;6.47;;
6017;SDS011;3037;51.068;13.780;2023-10-13T01:26:23;14.03;;;7.23;;
6017;SDS011;3037;51.068;13.780;2023-10-13T01:28:56;7.97;;;6.27;;
6017;SDS011;3037;51.068;13.780;2023-10-13T01:31:22;9.40;;;6.30;;
6017;SDS011;3037;51.068;13.780;2023-10-13T01:33:56;13.93;;;6.70;;
6017;SDS011;3037;51.068;13.780;2023-10-13T01:36:25;12.73;;;7.33;;
6017;SDS011;3037;51.068;13.780;2023-10-13T01:38:52;7.50;;;6.77;;
6017;SDS011;3037;51.068;13.780;2023-10-13T01:41:18;8.20;;;6.87;;
6017;SDS011;3037;51.068;13.780;2023-10-13T01:43:45;9.57;;;5.73;;
6017;SDS011;3037;51.068;13.780;2023-10-13T01:46:11;11.90;;;6.60;;
6017;SDS011;3037;51.068;13.780;2023-10-13T01:48:40;12.50;;;6.40;;
6017;SDS011;3037;51.068;13.780;2023-10-13T01:51:08;15.23;;;6.70;;
6017;SDS011;3037;51.068;13.780;2023-10-13T01:53:38;11.50;;;6.27;;
6017;SDS011;3037;51.068;13.780;2023-10-13T01:56:05;8.33;;;6.27;;
6017;SDS011;3037;51.068;13.780;2023-10-13T01:58:35;8.37;;;6.30;;
6017;SDS011;3037;51.068;13.780;2023-10-13T02:01:01;8.43;;;6.57;;
6017;SDS011;3037;51.068;13.780;2023-10-13T02:03:31;14.23;;;6.83;;
6017;SDS011;3037;51.068;13.780;2023-10-13T02:05:57;7.23;;;6.07;;
6017;SDS011;3037;51.068;13.780;2023-10-13T02:08:28;10.80;;;6.07;;
6017;SDS011;3037;51.068;13.780;2023-10-13T02:10:55;17.63;;;7.13;;
6017;SDS011;3037;51.068;13.780;2023-10-13T02:13:22;8.40;;;6.60;;
6017;SDS011;3037;51.068;13.780;2023-10-13T02:15:49;10.40;;;7.07;;
6017;SDS011;3037;51.068;13.780;2023-10-13T02:18:21;10.20;;;6.90;;
6017;SDS011;3037;51.068;13.780;2023-10-13T02:21:02;15.70;;;7.00;;
6017;SDS011;3037;51.068;13.780;2023-10-13T02:23:29;8.80;;;7.17;;
6017;SDS011;3037;51.068;13.780;2023-10-13T02:25:56;8.87;;;6.17;;
6017;SDS011;3037;51.068;13.780;2023-10-13T02:28:35;16.90;;;7.80;;
6017;SDS011;3037;51.068;13.780;2023-10-13T02:31:02;8.47;;;6.33;;
6017;SDS011;3037;51.068;13.780;2023-10-13T02:33:28;9.63;;;6.33;;
6017;SDS011;3037;51.068;13.780;2023-10-13T02:35:58;8.10;;;5.63;;
6017;SDS011;3037;51.068;13.780;2023-10-13T02:38:25;8.90;;;5.57;;
6017;SDS011;3037;51.068;13.780;2023-10-13T02:41:04;9.17;;;6.30;;
6017;SDS011;3037;51.068;13.780;2023-10-13T02:43:36;11.63;;;6.57;;
6017;SDS011;3037;51.068;13.780;2023-10-13T02:46:02;9.20;;;6.93;;
6017;SDS011;3037;51.068;13.780;2023-10-13T02:48:28;11.40;;;6.63;;
6017;SDS011;3037;51.068;13.780;2023-10-13T02:51:07;11.43;;;5.50;;
6017;SDS011;3037;51.068;13.780;2023-10-13T02:53:45;13.10;;;6.93;;
6017;SDS011;3037;51.068;13.780;2023-10-13T02:56:14;8.37;;;6.20;;
6017;SDS011;3037;51.068;13.780;2023-10-13T02:58:50;10.27;;;6.43;;
6017;SDS011;3037;51.068;13.780;2023-10-13T03:01:38;11.47;;;6.27;;
6017;SDS011;3037;51.068;13.780;2023-10-13T03:04:04;9.80;;;6.13;;
6017;SDS011;3037;51.068;13.780;2023-10-13T03:06:33;6.77;;;6.07;;
6017;SDS011;3037;51.068;13.780;2023-10-13T03:09:19;10.73;;;6.00;;
6017;SDS011;3037;51.068;13.780;2023-10-13T03:11:50;7.60;;;5.50;;
6017;SDS011;3037;51.068;13.780;2023-10-13T03:14:19;9.10;;;6.23;;
6017;SDS011;3037;51.068;13.780;2023-10-13T03:16:56;9.50;;;5.70;;
6017;SDS011;3037;51.068;13.780;2023-10-13T03:19:33;10.83;;;6.60;;
6017;SDS011;3037;51.068;13.780;2023-10-13T03:22:02;8.83;;;6.17;;
6017;SDS011;3037;51.068;13.780;2023-10-13T03:24:35;9.73;;;6.67;;
6017;SDS011;3037;51.068;13.780;2023-10-13T03:27:01;14.67;;;6.87;;
6017;SDS011;3037;51.068;13.780;2023-10-13T03:29:38;12.87;;;6.10;;
6017;SDS011;3037;51.068;13.780;2023-10-13T03:32:07;11.00;;;5.63;;
6017;SDS011;3037;51.068;13.780;2023-10-13T03:34:40;11.93;;;5.90;;
6017;SDS011;3037;51.068;13.780;2023-10-13T03:37:14;9.23;;;6.27;;
6017;SDS011;3037;51.068;13.780;2023-10-13T03:39:45;8.20;;;5.67;;
6017;SDS011;3037;51.068;13.780;2023-10-13T03:42:10;11.33;;;6.30;;
6017;SDS011;3037;51.068;13.780;2023-10-13T03:44:46;8.70;;;5.03;;
6017;SDS011;3037;51.068;13.780;2023-10-13T03:47:12;6.87;;;5.50;;
6017;SDS011;3037;51.068;13.780;2023-10-13T03:49:51;11.37;;;7.10;;
6017;SDS011;3037;51.068;13.780;2023-10-13T03:52:38;14.00;;;6.20;;
6017;SDS011;3037;51.068;13.780;2023-10-13T03:55:03;6.30;;;5.67;;
6017;SDS011;3037;51.068;13.780;2023-10-13T03:57:30;10.97;;;5.97;;
6017;SDS011;3037;51.068;13.780;2023-10-13T03:59:58;6.90;;;5.57;;
6017;SDS011;3037;51.068;13.780;2023-10-13T04:02:33;8.57;;;5.53;;
6017;SDS011;3037;51.068;13.780;2023-10-13T04:04:58;6.90;;;5.00;;
6017;SDS011;3037;51.068;13.780;2023-10-13T04:07:32;5.83;;;5.30;;
6017;SDS011;3037;51.068;13.780;2023-10-13T04:09:58;8.80;;;5.10;;
6017;SDS011;3037;51.068;13.780;2023-10-13T04:12:55;9.50;;;5.80;;
6017;SDS011;3037;51.068;13.780;2023-10-13T04:15:39;6.67;;;4.60;;
6017;SDS011;3037;51.068;13.780;2023-10-13T04:18:27;6.43;;;4.80;;
6017;SDS011;3037;51.068;13.780;2023-10-13T04:20:59;6.37;;;5.57;;
6017;SDS011;3037;51.068;13.780;2023-10-13T04:23:33;4.60;;;4.30;;
6017;SDS011;3037;51.068;13.780;2023-10-13T04:26:18;9.33;;;5.67;;
6017;SDS011;3037;51.068;13.780;2023-10-13T04:28:48;16.83;;;5.20;;
6017;SDS011;3037;51.068;13.780;2023-10-13T04:31:17;14.83;;;6.37;;
6017;SDS011;3037;51.068;13.780;2023-10-13T04:34:11;15.43;;;5.60;;
6017;SDS011;3037;51.068;13.780;2023-10-13T04:36:44;13.90;;;6.07;;
6017;SDS011;3037;51.068;13.780;2023-10-13T04:39:10;10.70;;;6.00;;
6017;SDS011;3037;51.068;13.780;2023-10-13T04:41:40;6.07;;;5.47;;
6017;SDS011;3037;51.068;13.780;2023-10-13T04:44:06;7.10;;;5.87;;
6017;SDS011;3037;51.068;13.780;2023-10-13T04:46:51;14.77;;;6.00;;
6017;SDS011;3037;51.068;13.780;2023-10-13T04:49:19;9.13;;;5.93;;
6017;SDS011;3037;51.068;13.780;2023-10-13T04:51:57;14.70;;;6.57;;
6017;SDS011;3037;51.068;13.780;2023-10-13T04:54:26;10.10;;;5.57;;
6017;SDS011;3037;51.068;13.780;2023-10-13T04:57:13;9.03;;;5.90;;
6017;SDS011;3037;51.068;13.780;2023-10-13T04:59:49;9.20;;;6.00;;
6017;SDS011;3037;51.068;13.780;2023-10-13T05:02:33;11.23;;;5.53;;
6017;SDS011;3037;51.068;13.780;2023-10-13T05:05:07;7.97;;;6.23;;
6017;SDS011;3037;51.068;13.780;2023-10-13T05:07:47;16.90;;;7.10;;
6017;SDS011;3037;51.068;13.780;2023-10-13T05:10:32;17.03;;;5.40;;
6017;SDS011;3037;51.068;13.780;2023-10-13T05:13:17;9.20;;;6.20;;
6017;SDS011;3037;51.068;13.780;2023-10-13T05:16:01;8.30;;;5.60;;
6017;SDS011;3037;51.068;13.780;2023-10-13T05:18:45;7.20;;;5.67;;
6017;SDS011;3037;51.068;13.780;2023-10-13T05:21:30;10.03;;;6.07;;
6017;SDS011;3037;51.068;13.780;2023-10-13T05:24:13;14.00;;;7.10;;
6017;SDS011;3037;51.068;13.780;2023-10-13T05:26:58;9.30;;;5.37;;
6017;SDS011;3037;51.068;13.780;2023-10-13T05:29:42;7.20;;;5.80;;
6017;SDS011;3037;51.068;13.780;2023-10-13T05:32:27;7.50;;;5.57;;
6017;SDS011;3037;51.068;13.780;2023-10-13T05:35:12;13.70;;;5.50;;
6017;SDS011;3037;51.068;13.780;2023-10-13T05:37:57;10.63;;;5.30;;
6017;SDS011;3037;51.068;13.780;2023-10-13T05:40:57;7.33;;;5.70;;
6017;SDS011;3037;51.068;13.780;2023-10-13T05:43:43;5.90;;;5.40;;
6017;SDS011;3037;51.068;13.780;2023-10-13T05:46:27;9.03;;;5.33;;
6017;SDS011;3037;51.068;13.780;2023-10-13T05:48:53;7.73;;;5.43;;
6017;SDS011;3037;51.068;13.780;2023-10-13T05:51:29;7.60;;;5.60;;
6017;SDS011;3037;51.068;13.780;2023-10-13T05:53:58;9.27;;;6.10;;
6017;SDS011;3037;51.068;13.780;2023-10-13T05:59:28;5.80;;;5.03;;
6017;SDS011;3037;51.068;13.780;2023-10-13T06:02:13;7.80;;;5.23;;
6017;SDS011;3037;51.068;13.780;2023-10-13T06:05:01;7.30;;;4.67;;
6017;SDS011;3037;51.068;13.780;2023-10-13T06:07:46;8.30;;;5.30;;
6017;SDS011;3037;51.068;13.780;2023-10-13T06:10:30;5.20;;;4.70;;
6017;SDS011;3037;51.068;13.780;2023-10-13T06:13:14;5.80;;;5.10;;
6017;SDS011;3037;51.068;13.780;2023-10-13T06:15:58;6.87;;;4.13;;
6017;SDS011;3037;51.068;13.780;2023-10-13T06:18:42;9.40;;;5.10;;
6017;SDS011;3037;51.068;13.780;2023-10-13T06:21:26;7.80;;;4.63;;
6017;SDS011;3037;51.068;13.780;2023-10-13T06:24:10;39.47;;;6.10;;
6017;SDS011;3037;51.068;13.780;2023-10-13T06:26:54;4.87;;;4.47;;
6017;SDS011;3037;51.068;13.780;2023-10-13T06:29:40;12.93;;;5.13;;
6017;SDS011;3037;51.068;13.780;2023-10-13T06:32:06;10.80;;;4.60;;
6017;SDS011;3037;51.068;13.780;2023-10-13T06:34:38;4.80;;;3.93;;
6017;SDS011;3037;51.068;13.780;2023-10-13T06:37:09;10.23;;;4.83;;
6017;SDS011;3037;51.068;13.780;2023-10-13T06:39:50;7.40;;;5.40;;
6017;SDS011;3037;51.068;13.780;2023-10-13T06:42:16;11.23;;;6.17;;
6017;SDS011;3037;51.068;13.780;2023-10-13T06:44:43;8.27;;;6.33;;
6017;SDS011;3037;51.068;13.780;2023-10-13T06:47:12;9.03;;;7.90;;
6017;SDS011;3037;51.068;13.780;2023-10-13T06:49:41;8.70;;;7.50;;
6017;SDS011;3037;51.068;13.780;2023-10-13T06:52:09;10.17;;;8.17;;
6017;SDS011;3037;51.068;13.780;2023-10-13T06:54:35;8.60;;;7.70;;
6017;SDS011;3037;51.068;13.780;2023-10-13T06:57:03;19.37;;;11.50;;
6017;SDS011;3037;51.068;13.780;2023-10-13T06:59:31;16.03;;;10.23;;
6017;SDS011;3037;51.068;13.780;2023-10-13T07:02:01;16.00;;;10.43;;
6017;SDS011;3037;51.068;13.780;2023-10-13T07:04:31;16.33;;;10.50;;
6017;SDS011;3037;51.068;13.780;2023-10-13T07:06:57;13.30;;;9.60;;
6017;SDS011;3037;51.068;13.780;2023-10-13T07:09:25;21.23;;;11.60;;
6017;SDS011;3037;51.068;13.780;2023-10-13T07:12:04;18.30;;;11.90;;
6017;SDS011;3037;51.068;13.780;2023-10-13T07:14:47;14.63;;;12.70;;
6017;SDS011;3037;51.068;13.780;2023-10-13T07:17:16;14.33;;;12.47;;
6017;SDS011;3037;51.068;13.780;2023-10-13T07:19:48;21.37;;;15.00;;
6017;SDS011;3037;51.068;13.780;2023-10-13T07:22:41;17.43;;;14.47;;
6017;SDS011;3037;51.068;13.780;2023-10-13T07:25:10;21.80;;;14.13;;
6017;SDS011;3037;51.068;13.780;2023-10-13T07:27:43;19.53;;;14.43;;
6017;SDS011;3037;51.068;13.780;2023-10-13T07:30:09;17.80;;;14.23;;
6017;SDS011;3037;51.068;13.780;2023-10-13T07:32:37;17.20;;;14.97;;
6017;SDS011;3037;51.068;13.780;2023-10-13T07:35:03;25.70;;;15.60;;
6017;SDS011;3037;51.068;13.780;2023-10-13T07:37:32;15.90;;;14.00;;
6017;SDS011;3037;51.068;13.780;2023-10-13T07:39:58;17.87;;;14.67;;
6017;SDS011;3037;51.068;13.780;2023-10-13T07:42:24;14.73;;;13.17;;
6017;SDS011;3037;51.068;13.780;2023-10-13T07:44:57;25.23;;;15.07;;
6017;SDS011;3037;51.068;13.780;2023-10-13T07:47:23;16.70;;;14.80;;
6017;SDS011;3037;51.068;13.780;2023-10-13T07:49:51;20.93;;;14.40;;
6017;SDS011;3037;51.068;13.780;2023-10-13T07:52:17;20.17;;;14.33;;
6017;SDS011;3037;51.068;13.780;2023-10-13T07:54:46;16.03;;;13.60;;
6017;SDS011;3037;51.068;13.780;2023-10-13T07:57:15;15.13;;;13.53;;
6017;SDS011;3037;51.068;13.780;2023-10-13T07:59:42;16.60;;;14.80;;
6017;SDS011;3037;51.068;13.780;2023-10-13T08:02:17;19.37;;;13.80;;
6017;SDS011;3037;51.068;13.780;2023-10-13T08:05:02;18.57;;;14.07;;
6017;SDS011;3037;51.068;13.780;2023-10-13T08:07:33;14.40;;;10.77;;
6017;SDS011;3037;51.068;13.780;2023-10-13T08:10:04;12.83;;;9.90;;
6017;SDS011;3037;51.068;13.780;2023-10-13T08:12:35;16.20;;;11.20;;
6017;SDS011;3037;51.068;13.780;2023-10-13T08:15:02;11.83;;;10.10;;
6017;SDS011;3037;51.068;13.780;2023-10-13T08:17:45;13.37;;;10.47;;
6017;SDS011;3037;51.068;13.780;2023-10-13T08:20:11;13.50;;;9.00;;
6017;SDS011;3037;51.068;13.780;2023-10-13T08:22:37;10.07;;;9.00;;
6017;SDS011;3037;51.068;13.780;2023-10-13T08:25:03;8.37;;;7.60;;
6017;SDS011;3037;51.068;13.780;2023-10-13T08:27:48;8.60;;;7.70;;
6017;SDS011;3037;51.068;13.780;2023-10-13T08:30:15;15.93;;;8.13;;
6017;SDS011;3037;51.068;13.780;2023-10-13T08:32:51;8.57;;;7.70;;
6017;SDS011;3037;51.068;13.780;2023-10-13T08:35:22;8.43;;;7.63;;
6017;SDS011;3037;51.068;13.780;2023-10-13T08:37:59;8.50;;;7.70;;
6017;SDS011;3037;51.068;13.780;2023-10-13T08:40:29;10.00;;;7.30;;
6017;SDS011;3037;51.068;13.780;2023-10-13T08:43:13;13.80;;;7.93;;
6017;SDS011;3037;51.068;13.780;2023-10-13T08:45:39;9.80;;;7.03;;
6017;SDS011;3037;51.068;13.780;2023-10-13T08:48:11;8.00;;;6.50;;
6017;SDS011;3037;51.068;13.780;2023-10-13T08:50:44;7.07;;;6.37;;
6017;SDS011;3037;51.068;13.780;2023-10-13T08:53:27;7.60;;;6.60;;
6017;SDS011;3037;51.068;13.780;2023-10-13T08:55:59;7.60;;;6.77;;
6017;SDS011;3037;51.068;13.780;2023-10-13T08:58:57;7.47;;;6.33;;
6017;SDS011;3037;51.068;13.780;2023-10-13T09:04:11;7.40;;;5.43;;
6017;SDS011;3037;51.068;13.780;2023-10-13T09:06:45;6.97;;;4.83;;
6017;SDS011;3037;51.068;13.780;2023-10-13T09:09:15;4.23;;;3.93;;
6017;SDS011;3037;51.068;13.780;2023-10-13T09:14:39;6.40;;;5.50;;
6017;SDS011;3037;51.068;13.780;2023-10-13T09:17:10;4.63;;;4.33;;
6017;SDS011;3037;51.068;13.780;2023-10-13T09:19:58;4.10;;;3.80;;
6017;SDS011;3037;51.068;13.780;2023-10-13T09:22:36;4.50;;;4.10;;
6017;SDS011;3037;51.068;13.780;2023-10-13T09:25:04;9.07;;;4.20;;
6017;SDS011;3037;51.068;13.780;2023-10-13T09:27:31;5.30;;;4.50;;
6017;SDS011;3037;51.068;13.780;2023-10-13T09:30:03;4.40;;;4.00;;
6017;SDS011;3037;51.068;13.780;2023-10-13T09:33:01;4.30;;;3.13;;
6017;SDS011;3037;51.068;13.780;2023-10-13T09:35:33;7.20;;;4.10;;
6017;SDS011;3037;51.068;13.780;2023-10-13T09:38:02;3.30;;;3.10;;
6017;SDS011;3037;51.068;13.780;2023-10-13T09:40:28;6.20;;;3.60;;
6017;SDS011;3037;51.068;13.780;2023-10-13T09:42:57;4.00;;;3.37;;
6017;SDS011;3037;51.068;13.780;2023-10-13T09:45:31;2.43;;;2.23;;
6017;SDS011;3037;51.068;13.780;2023-10-13T09:48:11;3.30;;;3.00;;
6017;SDS011;3037;51.068;13.780;2023-10-13T09:50:46;5.47;;;4.20;;
6017;SDS011;3037;51.068;13.780;2023-10-13T09:53:14;5.43;;;4.97;;
6017;SDS011;3037;51.068;13.780;2023-10-13T09:56:02;4.27;;;3.97;;
6017;SDS011;3037;51.068;13.780;2023-10-13T09:58:58;9.07;;;6.03;;
6017;SDS011;3037;51.068;13.780;2023-10-13T10:01:37;12.00;;;8.70;;
6017;SDS011;3037;51.068;13.780;2023-10-13T10:04:31;12.70;;;10.57;;
6017;SDS011;3037;51.068;13.780;2023-10-13T10:07:00;15.10;;;10.40;;
6017;SDS011;3037;51.068;13.780;2023-10-13T10:09:26;11.87;;;10.27;;
6017;SDS011;3037;51.068;13.780;2023-10-13T10:12:09;16.10;;;10.00;;
6017;SDS011;3037;51.068;13.780;2023-10-13T10:15:06;21.97;;;11.03;;
6017;SDS011;3037;51.068;13.780;2023-10-13T10:17:58;29.93;;;11.33;;
6017;SDS011;3037;51.068;13.780;2023-10-13T10:20:32;16.57;;;12.87;;
6017;SDS011;3037;51.068;13.780;2023-10-13T10:23:09;12.87;;;11.33;;
6017;SDS011;3037;51.068;13.780;2023-10-13T10:25:47;17.60;;;11.47;;
6017;SDS011;3037;51.068;13.780;2023-10-13T10:28:15;17.50;;;10.93;;
6017;SDS011;3037;51.068;13.780;2023-10-13T10:30:41;16.27;;;12.63;;
6017;SDS011;3037;51.068;13.780;2023-10-13T10:33:09;13.80;;;12.27;;
6017;SDS011;3037;51.068;13.780;2023-10-13T10:35:41;16.23;;;12.80;;
6017;SDS011;3037;51.068;13.780;2023-10-13T10:40:54;14.67;;;11.73;;
6017;SDS011;3037;51.068;13.780;2023-10-13T10:43:34;15.80;;;13.03;;
6017;SDS011;3037;51.068;13.780;2023-10-13T10:46:28;17.00;;;12.70;;
6017;SDS011;3037;51.068;13.780;2023-10-13T10:48:56;21.60;;;11.97;;
6017;SDS011;3037;51.068;13.780;2023-10-13T10:51:26;19.47;;;10.60;;
6017;SDS011;3037;51.068;13.780;2023-10-13T10:54:00;15.67;;;10.03;;
6017;SDS011;3037;51.068;13.780;2023-10-13T10:56:37;26.20;;;10.60;;
6017;SDS011;3037;51.068;13.780;2023-10-13T10:59:04;15.10;;;10.13;;
6017;SDS011;3037;51.068;13.780;2023-10-13T11:01:33;9.90;;;8.33;;
6017;SDS011;3037;51.068;13.780;2023-10-13T11:04:12;11.93;;;8.30;;
6017;SDS011;3037;51.068;13.780;2023-10-13T11:06:49;8.67;;;6.77;;
6017;SDS011;3037;51.068;13.780;2023-10-13T11:09:14;16.97;;;7.10;;
6017;SDS011;3037;51.068;13.780;2023-10-13T11:11:50;8.73;;;4.23;;
6017;SDS011;3037;51.068;13.780;2023-10-13T11:14:20;11.77;;;4.40;;
6017;SDS011;3037;51.068;13.780;2023-10-13T11:16:48;13.13;;;6.80;;
6017;SDS011;3037;51.068;13.780;2023-10-13T11:19:18;7.97;;;6.60;;
6017;SDS011;3037;51.068;13.780;2023-10-13T11:21:51;11.63;;;6.77;;
6017;SDS011;3037;51.068;13.780;2023-10-13T11:24:19;15.63;;;6.17;;
6017;SDS011;3037;51.068;13.780;2023-10-13T11:26:46;10.30;;;5.90;;
6017;SDS011;3037;51.068;13.780;2023-10-13T11:29:16;10.63;;;5.97;;
6017;SDS011;3037;51.068;13.780;2023-10-13T11:31:44;13.50;;;7.10;;
6017;SDS011;3037;51.068;13.780;2023-10-13T11:34:11;10.37;;;6.87;;
6017;SDS011;3037;51.068;13.780;2023-10-13T11:36:41;16.30;;;7.87;;
6017;SDS011;3037;51.068;13.780;2023-10-13T11:39:07;20.30;;;5.60;;
6017;SDS011;3037;51.068;13.780;2023-10-13T11:41:33;6.40;;;5.53;;
6017;SDS011;3037;51.068;13.780;2023-10-13T11:43:59;15.73;;;6.80;;
6017;SDS011;3037;51.068;13.780;2023-10-13T11:46:30;16.90;;;6.53;;
6017;SDS011;3037;51.068;13.780;2023-10-13T11:49:05;9.80;;;6.07;;
6017;SDS011;3037;51.068;13.780;2023-10-13T11:51:38;10.03;;;7.30;;
6017;SDS011;3037;51.068;13.780;2023-10-13T11:54:04;15.73;;;6.80;;
6017;SDS011;3037;51.068;13.780;2023-10-13T11:56:29;15.10;;;6.80;;
6017;SDS011;3037;51.068;13.780;2023-10-13T11:58:55;9.87;;;7.03;;
6017;SDS011;3037;51.068;13.780;2023-10-13T12:01:26;12.27;;;7.63;;
6017;SDS011;3037;51.068;13.780;2023-10-13T12:04:12;18.53;;;9.00;;
6017;SDS011;3037;51.068;13.780;2023-10-13T12:06:56;13.13;;;7.40;;
6017;SDS011;3037;51.068;13.780;2023-10-13T12:09:42;12.80;;;6.80;;
6017;SDS011;3037;51.068;13.780;2023-10-13T12:12:27;10.40;;;6.80;;
6017;SDS011;3037;51.068;13.780;2023-10-13T12:14:54;16.30;;;7.60;;
6017;SDS011;3037;51.068;13.780;2023-10-13T12:17:23;8.40;;;6.70;;
6017;SDS011;3037;51.068;13.780;2023-10-13T12:19:52;11.40;;;6.17;;
6017;SDS011;3037;51.068;13.780;2023-10-13T12:22:19;9.57;;;6.10;;
6017;SDS011;3037;51.068;13.780;2023-10-13T12:25:00;16.67;;;6.73;;
6017;SDS011;3037;51.068;13.780;2023-10-13T12:27:30;14.93;;;6.57;;
6017;SDS011;3037;51.068;13.780;2023-10-13T12:30:10;12.70;;;6.50;;
6017;SDS011;3037;51.068;13.780;2023-10-13T12:32:39;11.97;;;6.10;;
6017;SDS011;3037;51.068;13.780;2023-10-13T12:35:09;14.47;;;6.60;;
6017;SDS011;3037;51.068;13.780;2023-10-13T12:37:35;16.73;;;7.73;;
6017;SDS011;3037;51.068;13.780;2023-10-13T12:40:01;13.63;;;7.13;;
6017;SDS011;3037;51.068;13.780;2023-10-13T12:42:56;10.73;;;6.50;;
6017;SDS011;3037;51.068;13.780;2023-10-13T12:45:43;10.10;;;5.90;;
6017;SDS011;3037;51.068;13.780;2023-10-13T12:48:28;15.83;;;6.80;;
6017;SDS011;3037;51.068;13.780;2023-10-13T12:51:13;10.60;;;6.20;;
6017;SDS011;3037;51.068;13.780;2023-10-13T12:53:55;15.63;;;6.70;;
6017;SDS011;3037;51.068;13.780;2023-10-13T12:56:29;9.10;;;6.20;;
6017;SDS011;3037;51.068;13.780;2023-10-13T12:58:55;12.27;;;6.43;;
6017;SDS011;3037;51.068;13.780;2023-10-13T13:01:22;18.17;;;7.10;;
6017;SDS011;3037;51.068;13.780;2023-10-13T13:03:50;11.23;;;6.37;;
6017;SDS011;3037;51.068;13.780;2023-10-13T13:06:20;11.30;;;5.20;;
6017;SDS011;3037;51.068;13.780;2023-10-13T13:08:56;12.60;;;5.93;;
6017;SDS011;3037;51.068;13.780;2023-10-13T13:11:23;8.67;;;6.33;;
6017;SDS011;3037;51.068;13.780;2023-10-13T13:13:49;11.00;;;7.07;;
6017;SDS011;3037;51.068;13.780;2023-10-13T13:16:18;10.23;;;5.80;;
6017;SDS011;3037;51.068;13.780;2023-10-13T13:18:48;13.30;;;5.87;;
6017;SDS011;3037;51.068;13.780;2023-10-13T13:21:15;13.27;;;6.20;;
6017;SDS011;3037;51.068;13.780;2023-10-13T13:23:47;10.10;;;5.70;;
6017;SDS011;3037;51.068;13.780;2023-10-13T13:26:14;21.03;;;5.87;;
6017;SDS011;3037;51.068;13.780;2023-10-13T13:28:43;19.43;;;6.20;;
6017;SDS011;3037;51.068;13.780;2023-10-13T13:31:16;12.07;;;4.77;;
6017;SDS011;3037;51.068;13.780;2023-10-13T13:33:42;25.97;;;6.70;;
6017;SDS011;3037;51.068;13.780;2023-10-13T13:36:09;16.37;;;5.97;;
6017;SDS011;3037;51.068;13.780;2023-10-13T13:38:40;12.67;;;5.60;;
6017;SDS011;3037;51.068;13.780;2023-10-13T13:41:11;20.00;;;7.10;;
6017;SDS011;3037;51.068;13.780;2023-10-13T13:43:42;7.83;;;4.80;;
6017;SDS011;3037;51.068;13.780;2023-10-13T13:46:17;15.87;;;5.50;;
6017;SDS011;3037;51.068;13.780;2023-10-13T13:48:52;18.70;;;5.80;;
6017;SDS011;3037;51.068;13.780;2023-10-13T13:51:29;14.90;;;5.33;;
6017;SDS011;3037;51.068;13.780;2023-10-13T13:53:57;9.23;;;4.53;;
6017;SDS011;3037;51.068;13.780;2023-10-13T13:56:23;21.70;;;6.23;;
6017;SDS011;3037;51.068;13.780;2023-10-13T13:58:53;7.13;;;4.50;;
6017;SDS011;3037;51.068;13.780;2023-10-13T14:01:21;25.50;;;5.90;;
6017;SDS011;3037;51.068;13.780;2023-10-13T14:03:50;9.57;;;5.60;;
6017;SDS011;3037;51.068;13.780;2023-10-13T14:06:16;13.43;;;5.30;;
6017;SDS011;3037;51.068;13.780;2023-10-13T14:08:48;14.57;;;5.57;;
6017;SDS011;3037;51.068;13.780;2023-10-13T14:11:16;15.70;;;5.00;;
6017;SDS011;3037;51.068;13.780;2023-10-13T14:14:01;7.03;;;5.60;;
6017;SDS011;3037;51.068;13.780;2023-10-13T14:16:29;8.67;;;5.47;;
6017;SDS011;3037;51.068;13.780;2023-10-13T14:18:59;12.33;;;5.17;;
6017;SDS011;3037;51.068;13.780;2023-10-13T14:21:27;8.40;;;4.53;;
6017;SDS011;3037;51.068;13.780;2023-10-13T14:23:54;9.83;;;5.10;;
6017;SDS011;3037;51.068;13.780;2023-10-13T14:26:19;13.70;;;5.43;;
6017;SDS011;3037;51.068;13.780;2023-10-13T14:28:47;11.30;;;5.80;;
6017;SDS011;3037;51.068;13.780;2023-10-13T14:31:35;12.37;;;5.03;;
6017;SDS011;3037;51.068;13.780;2023-10-13T14:34:02;14.30;;;5.60;;
6017;SDS011;3037;51.068;13.780;2023-10-13T14:36:28;9.23;;;4.80;;
6017;SDS011;3037;51.068;13.780;2023-10-13T14:38:59;19.10;;;5.93;;
6017;SDS011;3037;51.068;13.780;2023-10-13T14:41:25;19.47;;;5.77;;
6017;SDS011;3037;51.068;13.780;2023-10-13T14:43:52;19.70;;;6.50;;
6017;SDS011;3037;51.068;13.780;2023-10-13T14:46:21;26.47;;;5.60;;
6017;SDS011;3037;51.068;13.780;2023-10-13T14:48:48;12.20;;;5.83;;
6017;SDS011;3037;51.068;13.780;2023-10-13T14:51:17;16.63;;;6.00;;
6017;SDS011;3037;51.068;13.780;2023-10-13T14:53:44;14.60;;;6.30;;
6017;SDS011;3037;51.068;13.780;2023-10-13T14:56:11;9.20;;;6.40;;
6017;SDS011;3037;51.068;13.780;2023-10-13T14:58:38;59.50;;;35.40;;
6017;SDS011;3037;51.068;13.780;2023-10-13T15:01:11;18.60;;;7.10;;
6017;SDS011;3037;51.068;13.780;2023-10-13T15:03:40;16.40;;;7.93;;
6017;SDS011;3037;51.068;13.780;2023-10-13T15:06:07;11.07;;;6.50;;
6017;SDS011;3037;51.068;13.780;2023-10-13T15:08:33;9.70;;;6.87;;
6017;SDS011;3037;51.068;13.780;2023-10-13T15:11:07;16.00;;;5.50;;
6017;SDS011;3037;51.068;13.780;2023-10-13T15:13:37;9.40;;;6.83;;
6017;SDS011;3037;51.068;13.780;2023-10-13T15:16:13;16.53;;;5.60;;
6017;SDS011;3037;51.068;13.780;2023-10-13T15:18:43;8.97;;;5.60;;
6017;SDS011;3037;51.068;13.780;2023-10-13T15:21:10;11.40;;;6.27;;
6017;SDS011;3037;51.068;13.780;2023-10-13T15:23:36;10.13;;;5.80;;
6017;SDS011;3037;51.068;13.780;2023-10-13T15:26:08;17.70;;;6.17;;
6017;SDS011;3037;51.068;13.780;2023-10-13T15:28:39;8.13;;;5.40;;
6017;SDS011;3037;51.068;13.780;2023-10-13T15:31:15;21.13;;;5.30;;
6017;SDS011;3037;51.068;13.780;2023-10-13T15:33:59;12.17;;;5.57;;
6017;SDS011;3037;51.068;13.780;2023-10-13T15:36:31;13.67;;;6.17;;